Time;durP1;ratioP1;P1;durP2;ratioP2;P2;SDS_P1;SDS_P2;PMS_P1;PMS_P2;Temp;Humidity;BMP_temperature;BMP_pressure;BME280_temperature;BME280_humidity;BME280_pressure;Samples;Min_cycle;Max_cycle;Signal;HPM_P1;HPM_P2
2023/05/22 00:02:28;;;;;;;16.00;14.50;;;17.70;99.90;;;;;;10592182;27;20222;-83
2023/05/22 00:07:30;;;;;;;16.50;15.20;;;17.60;99.90;;;;;;10603084;27;20490;-82
2023/05/22 00:12:32;;;;;;;15.97;14.57;;;17.60;99.90;;;;;;10593137;27;20195;-83
2023/05/22 00:17:36;;;;;;;16.10;14.70;;;17.60;99.90;;;;;;10568296;28;20223;-83
2023/05/22 00:22:39;;;;;;;15.00;13.90;;;17.60;99.90;;;;;;10599088;27;20191;-83
2023/05/22 00:27:41;;;;;;;16.67;15.17;;;17.50;99.90;;;;;;10610364;27;20223;-84
2023/05/22 00:32:44;;;;;;;15.43;14.13;;;17.50;99.90;;;;;;10584034;28;20200;-84
2023/05/22 00:37:46;;;;;;;15.83;14.57;;;17.50;99.90;;;;;;10579544;27;20659;-84
2023/05/22 00:42:48;;;;;;;16.13;14.83;;;17.40;99.90;;;;;;10567532;28;20188;-83
2023/05/22 00:47:52;;;;;;;17.70;16.20;;;17.40;99.90;;;;;;10554788;28;20242;-83
2023/05/22 00:52:54;;;;;;;17.07;15.70;;;17.30;99.90;;;;;;10578592;27;20260;-83
2023/05/22 00:57:57;;;;;;;16.63;15.27;;;17.30;99.90;;;;;;10587041;27;20262;-83
2023/05/22 01:03:01;;;;;;;16.87;15.17;;;17.30;99.90;;;;;;10583349;27;20242;-83
2023/05/22 01:08:05;;;;;;;15.97;14.57;;;17.30;99.90;;;;;;10576879;27;20223;-83
2023/05/22 01:13:19;;;;;;;17.17;15.70;;;17.20;99.90;;;;;;10566716;28;20201;-84
2023/05/22 01:18:31;;;;;;;16.47;14.97;;;17.10;99.90;;;;;;10564181;27;20237;-82
2023/05/22 01:24:01;;;;;;;17.53;16.13;;;17.10;99.90;;;;;;10593899;27;20585;-84
2023/05/22 01:29:14;;;;;;;16.60;15.07;;;17.10;99.90;;;;;;10585373;27;20687;-82
2023/05/22 01:34:18;;;;;;;16.50;15.07;;;17.00;99.90;;;;;;10590578;27;20727;-84
2023/05/22 01:39:22;;;;;;;18.37;16.87;;;17.00;99.90;;;;;;10546873;28;20212;-84
2023/05/22 01:44:25;;;;;;;17.67;16.03;;;17.00;99.90;;;;;;10596157;27;20234;-84
2023/05/22 01:49:28;;;;;;;17.10;15.50;;;17.00;99.90;;;;;;10596397;27;20701;-83
2023/05/22 01:54:37;;;;;;;17.37;15.80;;;17.00;99.90;;;;;;10576299;28;20595;-83
2023/05/22 01:59:46;;;;;;;16.87;15.47;;;16.90;99.90;;;;;;10557829;28;20222;-82
2023/05/22 02:04:55;;;;;;;16.37;15.07;;;16.80;99.90;;;;;;10567033;27;20215;-83
2023/05/22 02:09:59;;;;;;;18.10;16.50;;;16.80;99.90;;;;;;10563704;27;20300;-83
2023/05/22 02:15:02;;;;;;;17.80;16.40;;;16.80;99.90;;;;;;10568039;27;20207;-83
2023/05/22 02:20:13;;;;;;;17.70;16.30;;;16.80;99.90;;;;;;10583559;27;20731;-82
2023/05/22 02:25:16;;;;;;;16.93;15.63;;;16.70;99.90;;;;;;10577430;28;20312;-82
2023/05/22 02:30:19;;;;;;;16.97;15.57;;;16.70;99.90;;;;;;10599381;27;20219;-83
2023/05/22 02:35:26;;;;;;;18.97;17.37;;;16.70;99.90;;;;;;10581977;27;20191;-83
2023/05/22 02:40:28;;;;;;;18.90;17.23;;;16.70;99.90;;;;;;10579784;27;20252;-83
2023/05/22 02:45:32;;;;;;;18.10;16.50;;;16.70;99.90;;;;;;10566091;27;20215;-82
2023/05/22 02:50:35;;;;;;;17.13;15.53;;;16.70;99.90;;;;;;10578592;27;20224;-83
2023/05/22 02:55:37;;;;;;;17.20;15.63;;;16.70;99.90;;;;;;10569176;28;20640;-83
2023/05/22 03:00:40;;;;;;;17.37;15.97;;;16.80;99.90;;;;;;10594125;27;20211;-83
2023/05/22 03:05:44;;;;;;;18.73;17.00;;;16.80;99.90;;;;;;10547133;28;20207;-83
2023/05/22 03:10:47;;;;;;;18.97;17.37;;;16.90;99.90;;;;;;10594658;28;20260;-83
2023/05/22 03:15:49;;;;;;;19.03;17.33;;;16.90;99.90;;;;;;10572999;27;20215;-83
2023/05/22 03:20:53;;;;;;;18.63;17.00;;;17.00;99.90;;;;;;10599332;27;20294;-83
2023/05/22 03:25:55;;;;;;;19.47;17.77;;;17.00;99.90;;;;;;10581250;27;20231;-83
2023/05/22 03:31:02;;;;;;;19.20;17.60;;;17.00;99.90;;;;;;10589445;27;20226;-82
2023/05/22 03:36:12;;;;;;;17.60;16.10;;;17.00;99.90;;;;;;10576742;27;20644;-83
2023/05/22 03:41:14;;;;;;;19.37;17.57;;;16.90;99.90;;;;;;10585974;27;20207;-83
2023/05/22 03:46:17;;;;;;;17.70;16.10;;;16.90;99.90;;;;;;10595665;27;20240;-83
2023/05/22 03:51:21;;;;;;;17.53;15.93;;;16.90;99.90;;;;;;10564174;28;20234;-83
2023/05/22 03:56:23;;;;;;;19.83;17.73;;;16.90;99.90;;;;;;10558165;27;20184;-82
2023/05/22 04:01:25;;;;;;;17.60;16.00;;;16.90;99.90;;;;;;10586680;28;20223;-82
2023/05/22 04:06:31;;;;;;;17.97;16.37;;;17.00;99.90;;;;;;10551124;27;20224;-81
2023/05/22 04:11:34;;;;;;;18.80;17.10;;;17.10;99.90;;;;;;10554979;28;20231;-82
2023/05/22 04:16:36;;;;;;;18.60;17.10;;;17.10;99.90;;;;;;10562157;28;20249;-82
2023/05/22 04:21:40;;;;;;;18.10;16.50;;;17.20;99.90;;;;;;10550214;28;20227;-81
2023/05/22 04:26:42;;;;;;;17.57;16.07;;;17.20;99.90;;;;;;10578706;27;20581;-82
2023/05/22 04:31:44;;;;;;;19.07;17.37;;;17.20;99.90;;;;;;10594749;27;20215;-81
2023/05/22 04:36:48;;;;;;;19.10;17.40;;;17.10;99.90;;;;;;10610217;27;20192;-83
2023/05/22 04:41:50;;;;;;;18.57;16.90;;;17.10;99.90;;;;;;10593011;27;20244;-82
2023/05/22 04:46:56;;;;;;;17.47;15.97;;;17.10;99.90;;;;;;10610350;27;20212;-82
2023/05/22 04:52:03;;;;;;;18.33;16.73;;;17.10;99.90;;;;;;10577981;27;20200;-82
2023/05/22 04:57:06;;;;;;;20.17;18.33;;;17.10;99.90;;;;;;10584299;27;20213;-83
2023/05/22 05:02:08;;;;;;;20.03;18.23;;;17.10;99.90;;;;;;10601882;27;20246;-84
2023/05/22 05:07:16;;;;;;;20.03;18.33;;;17.10;99.90;;;;;;10590359;27;20233;-84
2023/05/22 05:12:19;;;;;;;18.57;16.97;;;17.10;99.90;;;;;;10589508;27;20287;-85
2023/05/22 05:17:21;;;;;;;18.90;17.10;;;17.20;99.90;;;;;;10559114;28;20222;-85
2023/05/22 05:22:24;;;;;;;19.60;17.70;;;17.20;99.90;;;;;;10557092;27;20196;-84
2023/05/22 05:27:27;;;;;;;20.33;18.53;;;17.20;99.90;;;;;;10582399;27;20469;-86
2023/05/22 05:32:30;;;;;;;19.43;17.73;;;17.30;99.90;;;;;;10602671;27;20300;-86
2023/05/22 05:37:46;;;;;;;20.50;18.70;;;17.40;99.90;;;;;;10561621;27;20229;-86
2023/05/22 05:42:49;;;;;;;19.97;18.00;;;17.50;99.90;;;;;;10571319;27;20283;-86
2023/05/22 05:47:53;;;;;;;19.60;17.90;;;17.70;99.90;;;;;;10550976;27;20634;-85
2023/05/22 05:52:57;;;;;;;19.33;17.53;;;17.80;99.90;;;;;;10583389;27;20244;-85
2023/05/22 05:58:00;;;;;;;19.70;17.83;;;18.10;99.90;;;;;;10547990;27;20295;-86
2023/05/22 06:03:31;;;;;;;18.63;16.93;;;18.20;99.90;;;;;;10583446;27;20261;-84
2023/05/22 06:08:47;;;;;;;20.57;18.70;;;18.30;99.90;;;;;;10533998;28;20695;-84
2023/05/22 06:13:50;;;;;;;18.30;16.70;;;18.30;99.90;;;;;;10576505;27;20199;-85
2023/05/22 06:18:52;;;;;;;18.90;17.10;;;18.40;99.90;;;;;;10601980;27;20227;-84
2023/05/22 06:23:56;;;;;;;19.80;17.90;;;18.40;99.90;;;;;;10552124;28;20327;-84
2023/05/22 06:28:59;;;;;;;18.20;16.60;;;18.50;99.90;;;;;;10575943;27;20591;-84
2023/05/22 06:34:02;;;;;;;19.60;17.90;;;18.60;99.90;;;;;;10590786;27;20196;-84
2023/05/22 06:39:07;;;;;;;21.50;19.50;;;18.70;99.90;;;;;;10532987;28;20211;-84
2023/05/22 06:44:35;;;;;;;18.50;16.80;;;18.80;99.90;;;;;;10599894;27;20219;-84
2023/05/22 06:49:39;;;;;;;19.80;17.97;;;19.00;99.90;;;;;;10604172;27;20278;-84
2023/05/22 06:54:43;;;;;;;17.93;16.33;;;19.10;99.90;;;;;;10587429;28;20192;-84
2023/05/22 06:59:49;;;;;;;18.67;17.00;;;19.30;99.90;;;;;;10631952;27;20207;-84
2023/05/22 07:05:17;;;;;;;18.30;16.60;;;19.50;99.90;;;;;;10591797;28;20230;-84
2023/05/22 07:10:31;;;;;;;16.50;15.00;;;19.70;99.90;;;;;;10599079;27;20219;-84
2023/05/22 07:15:34;;;;;;;17.80;16.20;;;19.90;99.90;;;;;;10551792;28;20226;-84
2023/05/22 07:20:39;;;;;;;16.90;15.40;;;20.00;99.90;;;;;;10547989;28;20215;-84
2023/05/22 07:25:49;;;;;;;16.33;14.93;;;20.30;99.90;;;;;;10592101;27;20226;-84
2023/05/22 07:30:52;;;;;;;15.43;14.03;;;20.80;99.90;;;;;;10582283;27;20207;-85
2023/05/22 07:35:54;;;;;;;16.23;14.60;;;21.40;99.90;;;;;;10561682;28;20192;-85
2023/05/22 07:40:58;;;;;;;14.80;13.30;;;21.80;99.90;;;;;;10583511;28;20219;-85
2023/05/22 07:46:01;;;;;;;16.50;14.70;;;22.30;99.90;;;;;;10576159;28;20211;-85
2023/05/22 07:51:12;;;;;;;13.97;12.67;;;22.60;99.90;;;;;;10582341;28;20220;-85
2023/05/22 07:56:17;;;;;;;14.03;12.77;;;22.90;99.90;;;;;;10604678;28;20190;-86
2023/05/22 08:01:23;;;;;;;13.07;11.97;;;23.40;99.90;;;;;;10618189;27;20298;-85
2023/05/22 08:06:25;;;;;;;14.53;13.10;;;23.80;99.90;;;;;;10618526;27;20220;-85
2023/05/22 08:11:29;;;;;;;13.33;11.93;;;24.00;99.90;;;;;;10642094;27;20196;-85
2023/05/22 08:16:31;;;;;;;15.00;13.40;;;24.10;99.90;;;;;;10622752;27;20238;-85
2023/05/22 08:21:34;;;;;;;13.00;11.80;;;24.10;99.90;;;;;;10597414;28;20212;-86
2023/05/22 08:26:39;;;;;;;13.80;12.70;;;24.30;99.90;;;;;;10624340;27;20197;-85
2023/05/22 08:31:41;;;;;;;12.23;11.03;;;24.50;99.90;;;;;;10611404;28;20192;-85
2023/05/22 08:36:43;;;;;;;13.20;11.97;;;24.50;99.90;;;;;;10614735;27;20714;-85
2023/05/22 08:41:47;;;;;;;16.13;14.60;;;24.30;99.90;;;;;;10641872;27;20230;-85
2023/05/22 08:46:52;;;;;;;14.60;13.30;;;24.10;99.90;;;;;;10602928;27;20187;-85
2023/05/22 08:51:59;;;;;;;14.17;12.67;;;23.70;99.90;;;;;;10595649;28;20226;-86
2023/05/22 08:57:03;;;;;;;14.83;13.63;;;23.40;99.90;;;;;;10627840;27;20219;-85
2023/05/22 09:02:06;;;;;;;15.10;13.70;;;23.10;99.90;;;;;;10617906;27;20206;-86
2023/05/22 09:07:08;;;;;;;13.53;12.33;;;23.20;99.90;;;;;;10611362;27;20203;-85
2023/05/22 09:12:12;;;;;;;12.90;11.33;;;23.80;99.90;;;;;;10620626;27;20195;-85
2023/05/22 09:17:15;;;;;;;14.90;13.60;;;24.10;99.90;;;;;;10586231;27;20207;-85
2023/05/22 09:22:18;;;;;;;13.80;12.60;;;24.30;99.90;;;;;;10571821;28;20207;-85
2023/05/22 09:27:23;;;;;;;15.10;13.60;;;24.50;99.90;;;;;;10564085;27;20239;-85
2023/05/22 09:32:30;;;;;;;14.53;13.20;;;25.00;99.90;;;;;;10554478;28;20199;-85
2023/05/22 09:37:34;;;;;;;13.13;11.10;;;25.50;99.90;;;;;;10554152;28;20235;-85
2023/05/22 09:42:38;;;;;;;15.67;14.10;;;26.00;99.90;;;;;;10581582;27;20749;-85
2023/05/22 09:47:40;;;;;;;11.30;10.40;;;26.70;97.40;;;;;;10590844;27;20235;-85
2023/05/22 09:52:44;;;;;;;13.07;11.87;;;27.30;98.20;;;;;;10493288;23;20232;-80
2023/05/22 09:57:49;;;;;;;11.87;10.87;;;28.20;97.30;;;;;;10487569;28;20217;-78
2023/05/22 10:02:57;;;;;;;10.67;9.63;;;29.20;95.00;;;;;;10468627;28;20304;-83
2023/05/22 10:08:06;;;;;;;11.90;10.87;;;30.20;93.70;;;;;;10456206;28;20205;-83
2023/05/22 10:13:10;;;;;;;14.03;12.83;;;31.30;91.60;;;;;;10493379;28;20204;-79
2023/05/22 10:18:14;;;;;;;11.87;10.90;;;32.20;91.50;;;;;;10446565;28;20218;-82
2023/05/22 10:23:17;;;;;;;10.73;9.83;;;31.90;87.90;;;;;;10473269;28;20288;-82
2023/05/22 10:28:25;;;;;;;11.00;10.07;;;30.80;89.00;;;;;;10480849;28;20189;-81
2023/05/22 10:33:31;;;;;;;12.00;11.10;;;29.70;90.60;;;;;;10526982;28;20193;-79
2023/05/22 10:38:53;;;;;;;12.00;10.80;;;28.70;91.50;;;;;;10500679;28;20228;-80
2023/05/22 10:43:57;;;;;;;12.30;11.30;;;27.80;92.80;;;;;;10468340;28;20228;-79
2023/05/22 10:48:59;;;;;;;12.93;11.63;;;27.00;92.70;;;;;;10505064;28;20303;-79
2023/05/22 10:54:04;;;;;;;12.37;11.43;;;26.40;94.50;;;;;;10516676;28;20707;-79
2023/05/22 10:59:07;;;;;;;14.13;12.93;;;25.90;95.20;;;;;;10522368;28;20299;-81
2023/05/22 11:04:11;;;;;;;14.43;12.93;;;25.40;94.90;;;;;;10486839;28;20190;-80
2023/05/22 11:09:26;;;;;;;12.47;11.47;;;25.10;96.30;;;;;;10500205;28;20216;-83
2023/05/22 11:14:30;;;;;;;14.73;13.53;;;24.80;95.80;;;;;;10486218;28;20255;-79
2023/05/22 11:19:32;;;;;;;14.23;13.03;;;24.50;96.00;;;;;;10524962;28;20220;-80
2023/05/22 11:24:34;;;;;;;12.87;11.73;;;24.30;97.20;;;;;;10488482;28;20201;-81
2023/05/22 11:29:43;;;;;;;13.50;12.40;;;24.10;97.80;;;;;;10502643;28;20209;-81
2023/05/22 11:34:45;;;;;;;13.93;12.70;;;23.90;97.40;;;;;;10524520;28;20234;-82
2023/05/22 11:39:51;;;;;;;14.20;12.83;;;23.90;98.00;;;;;;10508207;28;20223;-82
2023/05/22 11:44:55;;;;;;;13.90;12.70;;;23.80;98.00;;;;;;10544683;28;20204;-81
2023/05/22 11:49:58;;;;;;;13.00;12.00;;;23.80;97.40;;;;;;10548123;28;20220;-82
2023/05/22 11:55:01;;;;;;;12.17;11.17;;;23.70;98.30;;;;;;10512810;28;20209;-82
2023/05/22 12:00:07;;;;;;;13.97;12.57;;;23.60;98.00;;;;;;10489036;28;20718;-81
2023/05/22 12:05:15;;;;;;;12.73;11.60;;;23.60;97.10;;;;;;10531274;28;20196;-81
2023/05/22 12:10:17;;;;;;;12.23;11.10;;;23.50;97.40;;;;;;10506424;28;20241;-80
2023/05/22 12:15:21;;;;;;;13.67;12.23;;;23.40;97.50;;;;;;10506640;28;20227;-82
2023/05/22 12:20:28;;;;;;;13.70;12.53;;;23.30;98.00;;;;;;10525373;28;20224;-82
2023/05/22 12:25:35;;;;;;;12.90;11.80;;;23.30;97.80;;;;;;10490374;28;20197;-82
2023/05/22 12:30:42;;;;;;;13.47;12.37;;;23.30;99.00;;;;;;10497145;28;20336;-78
2023/05/22 12:35:45;;;;;;;13.37;11.93;;;23.20;99.10;;;;;;10497869;28;20264;-79
2023/05/22 12:40:47;;;;;;;13.33;12.03;;;23.20;99.10;;;;;;10488953;28;20213;-82
2023/05/22 12:45:50;;;;;;;13.57;12.47;;;23.20;99.40;;;;;;10519975;28;20195;-82
2023/05/22 12:50:53;;;;;;;13.27;11.97;;;23.30;98.20;;;;;;10521606;28;20224;-81
2023/05/22 12:55:55;;;;;;;13.80;12.70;;;23.50;97.90;;;;;;10493557;28;20209;-81
2023/05/22 13:00:58;;;;;;;12.90;11.60;;;23.50;98.40;;;;;;10508700;28;20220;-83
2023/05/22 13:06:01;;;;;;;13.00;11.90;;;23.40;98.90;;;;;;10502519;28;20194;-81
2023/05/22 13:11:03;;;;;;;11.50;10.60;;;23.40;98.40;;;;;;10492256;28;20648;-82
2023/05/22 13:16:06;;;;;;;11.83;10.83;;;23.40;98.00;;;;;;10517155;28;20213;-80
2023/05/22 13:21:08;;;;;;;12.03;11.03;;;23.50;98.10;;;;;;10512108;28;20441;-79
2023/05/22 13:26:10;;;;;;;12.40;11.13;;;23.50;97.90;;;;;;10531737;28;20196;-80
2023/05/22 13:31:14;;;;;;;12.10;10.90;;;23.40;97.60;;;;;;10534368;28;20212;-79
2023/05/22 13:36:17;;;;;;;11.53;10.53;;;23.40;97.60;;;;;;10504723;28;20262;-80
2023/05/22 13:41:22;;;;;;;11.17;10.17;;;23.40;97.30;;;;;;10474460;28;20312;-80
2023/05/22 13:46:25;;;;;;;12.03;11.03;;;23.40;97.60;;;;;;10488367;28;20280;-80
2023/05/22 13:51:29;;;;;;;11.50;10.50;;;23.30;96.90;;;;;;10492421;28;20252;-80
2023/05/22 13:56:31;;;;;;;11.40;10.50;;;23.20;98.00;;;;;;10527017;28;20209;-79
2023/05/22 14:01:34;;;;;;;10.80;9.83;;;23.10;98.10;;;;;;10513519;28;20221;-81
2023/05/22 14:06:36;;;;;;;10.97;10.07;;;23.00;96.90;;;;;;10495198;28;20189;-82
2023/05/22 14:11:39;;;;;;;11.90;10.23;;;23.00;98.00;;;;;;10530526;28;20237;-83
2023/05/22 14:16:42;;;;;;;10.73;9.83;;;22.90;98.40;;;;;;10517043;28;20236;-82
2023/05/22 14:21:45;;;;;;;11.30;10.30;;;22.80;98.10;;;;;;10513543;28;20300;-79
2023/05/22 14:26:47;;;;;;;12.10;11.00;;;22.70;99.20;;;;;;10521104;28;20190;-80
2023/05/22 14:31:51;;;;;;;11.77;10.63;;;22.60;99.50;;;;;;10527174;28;20246;-80
2023/05/22 14:36:55;;;;;;;11.70;10.70;;;22.60;98.70;;;;;;10499418;28;20235;-80
2023/05/22 14:41:57;;;;;;;13.27;12.07;;;22.50;99.70;;;;;;10510874;28;20225;-80
2023/05/22 14:47:00;;;;;;;11.27;10.37;;;22.50;99.70;;;;;;10496332;28;20247;-78
2023/05/22 14:52:03;;;;;;;12.57;11.57;;;22.40;99.90;;;;;;10478044;28;20271;-84
2023/05/22 14:57:05;;;;;;;11.33;10.33;;;22.40;99.90;;;;;;10502812;28;20233;-82
2023/05/22 15:02:09;;;;;;;10.90;9.90;;;22.40;99.10;;;;;;10525660;28;20762;-83
2023/05/22 15:07:11;;;;;;;10.40;9.40;;;22.50;98.90;;;;;;10531423;28;20239;-83
2023/05/22 15:12:13;;;;;;;10.43;9.53;;;22.50;99.20;;;;;;10503206;28;20244;-80
2023/05/22 15:17:16;;;;;;;10.27;9.40;;;22.50;99.60;;;;;;10486774;28;20295;-79
2023/05/22 15:22:18;;;;;;;11.07;10.13;;;22.60;99.90;;;;;;10520050;28;20742;-81
2023/05/22 15:27:20;;;;;;;10.23;9.20;;;22.70;99.40;;;;;;10503819;28;20272;-81
2023/05/22 15:32:24;;;;;;;8.57;7.77;;;22.80;99.00;;;;;;10514380;28;20634;-80
2023/05/22 15:37:26;;;;;;;8.13;7.53;;;23.00;97.70;;;;;;10513399;28;20220;-81
2023/05/22 15:42:29;;;;;;;10.00;7.93;;;23.00;97.50;;;;;;10525325;28;20297;-80
2023/05/22 15:47:32;;;;;;;9.50;8.60;;;23.00;98.20;;;;;;10519220;28;20216;-81
2023/05/22 15:52:35;;;;;;;9.60;8.70;;;22.90;97.10;;;;;;10532709;28;20545;-84
2023/05/22 15:57:37;;;;;;;8.83;8.13;;;22.90;98.20;;;;;;10502009;28;20220;-84
2023/05/22 16:02:40;;;;;;;9.13;8.43;;;22.80;97.80;;;;;;10523967;28;20228;-83
2023/05/22 16:07:42;;;;;;;8.37;7.67;;;22.80;97.30;;;;;;10500494;28;20605;-84
2023/05/22 16:12:44;;;;;;;9.40;8.60;;;22.80;98.30;;;;;;10512982;28;20522;-83
2023/05/22 16:17:48;;;;;;;8.80;8.20;;;22.70;98.90;;;;;;10537166;28;20251;-82
2023/05/22 16:22:50;;;;;;;8.80;8.10;;;22.60;99.90;;;;;;10522289;28;20209;-83
2023/05/22 16:27:52;;;;;;;8.77;7.97;;;22.60;99.90;;;;;;10483799;28;20189;-83
2023/05/22 16:32:56;;;;;;;8.90;8.20;;;22.70;99.90;;;;;;10526995;28;20248;-83
2023/05/22 16:37:58;;;;;;;9.57;8.77;;;22.80;98.70;;;;;;10483916;28;20205;-84
2023/05/22 16:43:00;;;;;;;7.40;6.87;;;22.90;98.80;;;;;;10527881;28;20299;-83
2023/05/22 16:48:04;;;;;;;8.90;8.00;;;23.00;96.30;;;;;;10520000;28;20185;-79
2023/05/22 16:53:06;;;;;;;9.50;8.60;;;23.10;98.30;;;;;;10504808;28;20217;-81
2023/05/22 16:58:10;;;;;;;8.90;8.10;;;23.20;98.10;;;;;;10499892;28;20218;-79
2023/05/22 17:03:13;;;;;;;9.00;8.30;;;23.20;96.70;;;;;;10514693;28;20200;-80
2023/05/22 17:08:15;;;;;;;9.00;8.13;;;23.10;96.90;;;;;;10491650;28;20225;-83
2023/05/22 17:13:19;;;;;;;8.33;7.70;;;23.10;98.00;;;;;;10488175;28;20197;-82
2023/05/22 17:18:23;;;;;;;8.00;7.30;;;23.00;98.10;;;;;;10521635;28;20243;-81
2023/05/22 17:23:25;;;;;;;8.67;7.77;;;22.80;98.70;;;;;;10503673;28;20204;-82
2023/05/22 17:28:27;;;;;;;9.53;8.73;;;22.70;99.00;;;;;;10466803;28;20217;-79
2023/05/22 17:33:31;;;;;;;8.93;8.13;;;22.60;99.70;;;;;;10508524;28;20556;-81
2023/05/22 17:38:33;;;;;;;9.77;8.97;;;22.40;99.90;;;;;;10481672;28;20306;-81
2023/05/22 17:43:38;;;;;;;9.37;8.67;;;22.30;99.90;;;;;;10491015;28;20259;-84
2023/05/22 17:48:42;;;;;;;10.13;9.33;;;22.20;99.90;;;;;;10486363;28;20225;-83
2023/05/22 17:53:44;;;;;;;10.47;8.87;;;22.10;99.50;;;;;;10459966;28;20209;-83
2023/05/22 17:58:46;;;;;;;9.83;9.03;;;22.00;99.20;;;;;;10488133;28;20247;-80
2023/05/22 18:03:50;;;;;;;12.00;10.90;;;22.00;99.90;;;;;;10445628;28;20205;-84
2023/05/22 18:08:52;;;;;;;11.60;10.70;;;21.90;99.90;;;;;;10498202;28;20255;-82
2023/05/22 18:13:54;;;;;;;11.77;10.77;;;21.80;99.90;;;;;;10506497;28;20327;-82
2023/05/22 18:18:57;;;;;;;13.90;11.90;;;21.80;99.90;;;;;;10540306;28;20224;-83
2023/05/22 18:24:00;;;;;;;10.77;9.77;;;21.70;99.90;;;;;;10493337;28;20274;-83
2023/05/22 18:29:02;;;;;;;11.07;10.20;;;21.60;99.90;;;;;;10479695;28;20235;-82
2023/05/22 18:34:05;;;;;;;10.93;9.90;;;21.50;99.90;;;;;;10470189;28;20203;-82
2023/05/22 18:39:08;;;;;;;10.77;9.77;;;21.40;99.90;;;;;;10456247;28;20213;-82
2023/05/22 18:44:10;;;;;;;11.57;10.47;;;21.20;99.90;;;;;;10463718;28;20213;-82
2023/05/22 18:49:14;;;;;;;11.20;10.30;;;21.20;99.90;;;;;;10445837;28;20222;-81
2023/05/22 18:54:16;;;;;;;10.90;10.10;;;21.10;99.90;;;;;;10481212;28;20244;-81
2023/05/22 18:59:18;;;;;;;12.40;11.30;;;21.00;99.90;;;;;;10438573;28;20700;-81
2023/05/22 19:04:21;;;;;;;12.50;11.40;;;20.90;99.90;;;;;;10470281;28;20189;-81
2023/05/22 19:09:24;;;;;;;12.70;11.70;;;20.90;99.90;;;;;;10489257;28;20264;-81
2023/05/22 19:14:26;;;;;;;17.83;16.23;;;20.80;99.90;;;;;;10461241;28;20189;-81
2023/05/22 19:19:30;;;;;;;14.10;12.90;;;20.70;99.90;;;;;;10473270;28;20291;-83
2023/05/22 19:24:32;;;;;;;11.40;10.40;;;20.60;99.90;;;;;;10468489;28;20716;-80
2023/05/22 19:29:34;;;;;;;11.37;10.47;;;20.60;99.90;;;;;;10456938;28;20221;-81
2023/05/22 19:34:37;;;;;;;11.70;10.70;;;20.50;99.90;;;;;;10452734;28;20281;-81
2023/05/22 19:39:39;;;;;;;11.87;10.97;;;20.50;99.90;;;;;;10471505;28;20224;-79
2023/05/22 19:44:42;;;;;;;12.30;11.20;;;20.50;99.90;;;;;;10527138;28;20248;-79
2023/05/22 19:49:45;;;;;;;12.13;11.13;;;20.50;99.90;;;;;;10477131;28;20681;-81
2023/05/22 19:54:47;;;;;;;12.50;11.40;;;20.40;99.90;;;;;;10471189;28;20197;-81
2023/05/22 19:59:50;;;;;;;12.00;11.00;;;20.40;99.90;;;;;;10489952;28;20315;-81
2023/05/22 20:04:53;;;;;;;13.30;12.10;;;20.30;99.90;;;;;;10511042;28;20201;-81
2023/05/22 20:09:56;;;;;;;10.17;9.40;;;20.30;99.90;;;;;;10463794;28;20217;-81
2023/05/22 20:14:58;;;;;;;12.37;11.27;;;20.30;99.90;;;;;;10538351;28;20661;-82
2023/05/22 20:20:02;;;;;;;14.00;12.90;;;20.20;99.90;;;;;;10514749;28;20227;-81
2023/05/22 20:25:07;;;;;;;12.80;11.80;;;20.20;99.90;;;;;;10540270;28;20300;-81
2023/05/22 20:30:11;;;;;;;13.17;12.00;;;20.10;99.90;;;;;;10502442;28;20213;-80
2023/05/22 20:35:17;;;;;;;13.13;11.90;;;20.10;99.90;;;;;;10485116;28;20623;-80
2023/05/22 20:40:19;;;;;;;12.67;11.67;;;20.00;99.90;;;;;;10508559;28;20217;-81
2023/05/22 20:45:21;;;;;;;13.47;12.17;;;20.00;99.90;;;;;;10491453;28;20200;-81
2023/05/22 20:50:25;;;;;;;13.80;12.60;;;20.00;99.90;;;;;;10516867;28;20685;-81
2023/05/22 20:55:28;;;;;;;14.20;13.07;;;19.90;99.90;;;;;;10511187;28;20189;-80
2023/05/22 21:00:30;;;;;;;14.30;13.00;;;19.90;99.90;;;;;;10482962;28;20439;-82
2023/05/22 21:05:33;;;;;;;14.07;12.90;;;19.90;99.90;;;;;;10486522;28;20219;-81
2023/05/22 21:10:35;;;;;;;13.63;12.47;;;19.80;99.90;;;;;;10469970;28;20308;-81
2023/05/22 21:15:37;;;;;;;13.10;11.90;;;19.80;99.90;;;;;;10506432;28;20721;-81
2023/05/22 21:20:42;;;;;;;12.70;11.70;;;19.70;99.90;;;;;;10515445;28;20603;-82
2023/05/22 21:25:44;;;;;;;14.73;13.07;;;19.70;99.90;;;;;;10487911;28;20292;-81
2023/05/22 21:30:46;;;;;;;13.30;11.93;;;19.70;99.90;;;;;;10505005;28;20216;-80
2023/05/22 21:35:50;;;;;;;12.70;11.60;;;19.60;99.90;;;;;;10504065;28;20645;-81
2023/05/22 21:40:52;;;;;;;12.70;11.60;;;19.50;99.90;;;;;;10499291;28;20224;-81
2023/05/22 21:45:54;;;;;;;12.30;11.30;;;19.50;99.90;;;;;;10472538;28;20669;-81
2023/05/22 21:50:58;;;;;;;11.20;10.20;;;19.50;99.90;;;;;;10539878;22;21031;-85
2023/05/22 21:56:00;;;;;;;13.20;12.10;;;19.40;99.90;;;;;;10535264;28;20235;-86
2023/05/22 22:01:02;;;;;;;13.57;12.37;;;19.40;99.90;;;;;;10506033;28;20221;-86
2023/05/22 22:06:06;;;;;;;13.00;11.80;;;19.40;99.90;;;;;;10501930;28;20205;-86
2023/05/22 22:11:09;;;;;;;12.67;11.57;;;19.30;99.90;;;;;;10455242;28;20217;-86
2023/05/22 22:16:15;;;;;;;12.30;11.20;;;19.30;99.90;;;;;;10497172;28;20174;-86
2023/05/22 22:21:22;;;;;;;11.63;10.63;;;19.30;99.90;;;;;;10481960;28;20258;-87
2023/05/22 22:26:29;;;;;;;11.57;10.50;;;19.30;99.90;;;;;;10461765;28;20196;-86
2023/05/22 22:31:31;;;;;;;11.53;10.60;;;19.30;99.90;;;;;;10460693;28;20209;-86
2023/05/22 22:36:35;;;;;;;12.43;11.33;;;19.30;99.90;;;;;;10445179;28;20677;-85
2023/05/22 22:41:37;;;;;;;11.83;10.80;;;19.20;99.90;;;;;;10461001;28;20705;-87
2023/05/22 22:46:39;;;;;;;11.37;10.27;;;19.20;99.90;;;;;;10458196;28;20198;-86
2023/05/22 22:51:42;;;;;;;11.70;10.70;;;19.30;99.90;;;;;;10461502;28;20239;-87
2023/05/22 22:56:46;;;;;;;12.90;11.80;;;19.30;99.90;;;;;;10461419;28;20616;-85
2023/05/22 23:01:48;;;;;;;13.53;12.33;;;19.30;99.90;;;;;;10460034;28;20225;-85
2023/05/22 23:06:51;;;;;;;13.03;11.93;;;19.30;99.90;;;;;;10459874;28;20205;-86
2023/05/22 23:11:53;;;;;;;17.77;15.77;;;19.30;99.90;;;;;;10459951;28;20209;-85
2023/05/22 23:16:56;;;;;;;18.23;16.43;;;19.30;99.90;;;;;;10476075;28;20277;-85
2023/05/22 23:21:59;;;;;;;16.77;15.23;;;19.30;99.90;;;;;;10418681;28;20273;-85
2023/05/22 23:27:01;;;;;;;20.50;18.60;;;19.30;99.90;;;;;;10458775;28;20219;-85
2023/05/22 23:32:03;;;;;;;20.63;18.53;;;19.30;99.90;;;;;;10465847;28;20243;-86
2023/05/22 23:37:07;;;;;;;22.40;20.27;;;19.30;99.90;;;;;;10501784;28;20197;-86
2023/05/22 23:42:09;;;;;;;21.73;19.63;;;19.30;99.90;;;;;;10517093;28;20635;-86
2023/05/22 23:47:11;;;;;;;25.30;22.77;;;19.30;99.90;;;;;;10467346;28;20189;-86
2023/05/22 23:52:15;;;;;;;24.03;21.53;;;19.30;99.90;;;;;;10466748;28;20217;-86
2023/05/22 23:57:17;;;;;;;26.37;23.20;;;19.30;99.90;;;;;;10483332;28;20583;-86
